createdAt,value
2023-03-31T00:01:47.640Z,69.24
2023-03-31T00:04:46.685Z,69.40
2023-03-31T00:07:06.485Z,69.12
2023-03-31T00:09:51.919Z,69.96
2023-03-31T00:12:26.234Z,70.70
2023-03-31T00:15:06.539Z,70.80
2023-03-31T00:18:49.078Z,71.43
2023-03-31T00:21:03.960Z,71.56
2023-03-31T00:23:34.040Z,70.58
2023-03-31T00:28:51.940Z,71.21
2023-03-31T00:31:47.611Z,71.95
2023-03-31T00:34:17.316Z,70.97
2023-03-31T00:37:06.962Z,71.45
2023-03-31T00:39:35.912Z,71.76
2023-03-31T00:42:11.738Z,71.54
2023-03-31T00:48:15.620Z,72.49
2023-03-31T00:48:42.309Z,71.73
2023-03-31T00:51:15.087Z,71.86
2023-03-31T00:53:43.238Z,72.71
2023-03-31T00:56:15.796Z,72.70
2023-03-31T00:58:47.324Z,71.89
2023-03-31T01:01:21.818Z,73.57
2023-03-31T01:03:50.895Z,72.80
2023-03-31T01:06:21.969Z,72.99
2023-03-31T01:08:54.869Z,73.50
2023-03-31T01:11:28.228Z,73.61
2023-03-31T01:13:57.542Z,73.73
2023-03-31T01:16:28.255Z,73.96
2023-03-31T01:19:00.939Z,74.45
2023-03-31T01:25:31.425Z,73.10
2023-03-31T01:28:36.268Z,72.88
2023-03-31T01:31:51.418Z,74.30
2023-03-31T01:34:21.588Z,72.86
2023-03-31T01:37:25.942Z,73.23
2023-03-31T01:40:15.809Z,74.43
2023-03-31T01:43:04.355Z,74.53
2023-03-31T01:45:54.106Z,73.71
2023-03-31T01:48:31.181Z,74.20
2023-03-31T01:51:03.602Z,73.15
2023-03-31T01:53:38.073Z,73.67
2023-03-31T01:56:31.919Z,73.21
2023-03-31T01:59:41.587Z,73.42
2023-03-31T02:02:15.839Z,74.48
2023-03-31T02:04:58.154Z,73.94
2023-03-31T02:07:35.937Z,73.94
2023-03-31T02:10:12.460Z,74.11
2023-03-31T02:12:44.204Z,72.98
2023-03-31T02:15:18.925Z,74.03
2023-03-31T02:17:56.282Z,73.83
2023-03-31T02:20:28.458Z,73.86
2023-03-31T02:23:03.797Z,74.34
2023-03-31T02:28:45.966Z,74.70
2023-03-31T02:31:30.619Z,75.58
2023-03-31T02:34:08.276Z,74.43
2023-03-31T02:36:36.384Z,74.63
2023-03-31T02:39:10.625Z,73.94
2023-03-31T02:41:53.920Z,73.89
2023-03-31T02:44:29.161Z,74.86
2023-03-31T02:47:18.457Z,74.22
2023-03-31T02:49:55.036Z,73.60
2023-03-31T02:53:05.240Z,74.08
2023-03-31T02:55:48.733Z,74.49
2023-03-31T02:58:52.110Z,74.69
2023-03-31T03:02:27.282Z,75.84
2023-03-31T03:05:36.483Z,77.25
2023-03-31T03:08:29.191Z,76.27
2023-03-31T03:11:13.112Z,77.19
2023-03-31T03:14:39.911Z,77.14
2023-03-31T03:17:45.273Z,78.23
2023-03-31T03:20:52.566Z,76.87
2023-03-31T03:23:26.406Z,75.64
2023-03-31T03:28:52.331Z,76.12
2023-03-31T03:31:31.615Z,76.62
2023-03-31T03:37:22.671Z,75.99
2023-03-31T03:40:19.122Z,75.88
2023-03-31T03:45:51.882Z,76.53
2023-03-31T03:48:19.805Z,77.13
2023-03-31T03:50:47.586Z,76.73
2023-03-31T03:53:15.874Z,77.74
2023-03-31T03:55:42.653Z,77.53
2023-03-31T03:58:09.454Z,77.18
2023-03-31T04:00:36.258Z,75.92
2023-03-31T04:03:03.933Z,75.80
2023-03-31T04:05:31.830Z,76.31
2023-03-31T04:08:02.119Z,76.49
2023-03-31T04:10:29.476Z,77.09
2023-03-31T04:12:56.667Z,78.39
2023-03-31T04:15:23.410Z,79.11
2023-03-31T04:17:54.924Z,80.12
2023-03-31T04:20:21.819Z,80.16
2023-03-31T04:22:53.870Z,80.20
2023-03-31T04:25:23.970Z,80.61
2023-03-31T04:27:55.266Z,81.02
2023-03-31T04:30:31.153Z,82.22
2023-03-31T04:33:04.518Z,82.10
2023-03-31T04:35:53.041Z,82.11
2023-03-31T04:38:24.495Z,84.30
2023-03-31T04:40:53.409Z,83.44
2023-03-31T04:43:21.693Z,83.68
2023-03-31T04:45:48.780Z,82.76
2023-03-31T04:48:16.230Z,81.73
2023-03-31T04:50:47.333Z,82.20
2023-03-31T04:53:13.983Z,82.21
2023-03-31T04:55:50.910Z,81.17
2023-03-31T04:58:18.021Z,81.18
2023-03-31T05:00:48.086Z,81.52
2023-03-31T05:03:20.820Z,81.37
2023-03-31T05:05:47.721Z,81.85
2023-03-31T05:08:14.686Z,80.15
2023-03-31T05:10:51.326Z,79.00
2023-03-31T05:13:18.739Z,77.45
2023-03-31T05:15:48.285Z,78.36
2023-03-31T05:18:18.621Z,79.86
2023-03-31T05:20:45.819Z,79.92
2023-03-31T05:23:13.720Z,80.08
2023-03-31T05:25:43.402Z,79.85
2023-03-31T05:28:11.118Z,79.72
2023-03-31T05:30:37.920Z,82.14
2023-03-31T05:33:08.243Z,81.43
2023-03-31T05:35:37.669Z,82.29
2023-03-31T05:38:08.564Z,83.60
2023-03-31T05:40:36.294Z,84.87
2023-03-31T05:43:03.538Z,87.69
2023-03-31T05:45:36.808Z,89.02
2023-03-31T05:48:04.592Z,91.12
2023-03-31T05:50:38.676Z,89.37
2023-03-31T05:53:06.518Z,88.86
2023-03-31T05:55:39.234Z,90.28
2023-03-31T05:58:07.214Z,90.89
2023-03-31T06:00:39.084Z,93.60
2023-03-31T06:03:08.162Z,93.58
2023-03-31T06:05:36.120Z,94.17
2023-03-31T06:08:04.317Z,93.58
2023-03-31T06:10:31.481Z,93.19
2023-03-31T06:12:58.241Z,93.30
2023-03-31T06:15:35.636Z,94.03
2023-03-31T06:18:02.912Z,94.52
2023-03-31T06:20:30.233Z,93.25
2023-03-31T06:22:59.874Z,94.79
2023-03-31T06:25:37.133Z,96.43
2023-03-31T06:28:11.240Z,100.00
2023-03-31T06:30:42.036Z,100.00
2023-03-31T06:33:09.978Z,100.00
2023-03-31T06:35:41.009Z,100.00
2023-03-31T06:38:11.069Z,100.00
2023-03-31T06:40:41.284Z,100.00
2023-03-31T06:43:08.365Z,100.00
2023-03-31T06:45:37.925Z,100.00
2023-03-31T06:48:05.799Z,100.00
2023-03-31T06:50:36.549Z,100.00
2023-03-31T06:53:04.891Z,100.00
2023-03-31T06:55:34.025Z,100.00
2023-03-31T06:58:01.453Z,100.00
2023-03-31T07:00:33.087Z,100.00
2023-03-31T07:03:02.344Z,100.00
2023-03-31T07:05:30.805Z,100.00
2023-03-31T07:07:59.668Z,100.00
2023-03-31T07:10:30.093Z,100.00
2023-03-31T07:13:04.490Z,100.00
2023-03-31T07:15:32.827Z,100.00
2023-03-31T07:18:02.988Z,100.00
2023-03-31T07:20:32.518Z,100.00
2023-03-31T07:22:59.438Z,100.00
2023-03-31T07:26:04.424Z,100.00
2023-03-31T07:28:35.617Z,100.00
2023-03-31T07:31:03.174Z,100.00
2023-03-31T07:33:31.558Z,100.00
2023-03-31T07:36:10.873Z,99.51
2023-03-31T07:38:41.745Z,99.04
2023-03-31T07:41:14.381Z,98.09
2023-03-31T07:43:45.422Z,98.18
2023-03-31T07:46:24.517Z,98.57
2023-03-31T07:48:58.809Z,98.26
2023-03-31T07:51:27.968Z,96.97
2023-03-31T07:53:55.150Z,90.96
2023-03-31T07:56:28.191Z,86.30
2023-03-31T07:58:57.745Z,86.10
2023-03-31T08:01:26.441Z,84.95
2023-03-31T08:03:55.863Z,84.59
2023-03-31T08:06:25.269Z,84.77
2023-03-31T08:08:55.312Z,82.97
2023-03-31T08:11:22.355Z,83.01
2023-03-31T08:13:53.466Z,81.62
2023-03-31T08:16:21.432Z,78.78
2023-03-31T08:18:48.349Z,78.99
2023-03-31T08:21:20.154Z,77.40
2023-03-31T08:23:48.680Z,76.61
2023-03-31T08:26:22.401Z,76.22
2023-03-31T08:28:49.508Z,75.70
2023-03-31T08:31:22.218Z,76.06
2023-03-31T08:33:50.096Z,75.19
2023-03-31T08:36:17.547Z,74.41
2023-03-31T08:38:54.664Z,74.18
2023-03-31T08:41:50.446Z,72.00
2023-03-31T08:44:28.121Z,72.62
2023-03-31T08:46:56.373Z,70.94
2023-03-31T08:49:25.162Z,71.99
2023-03-31T08:52:01.284Z,68.96
2023-03-31T08:54:49.641Z,69.60
2023-03-31T08:57:22.371Z,67.73
2023-03-31T08:59:51.251Z,67.66
2023-03-31T09:02:56.024Z,66.89
2023-03-31T09:05:59.547Z,65.84
2023-03-31T09:08:45.247Z,65.64
2023-03-31T09:11:39.435Z,66.24
2023-03-31T09:14:20.667Z,64.72
2023-03-31T09:16:47.914Z,63.69
2023-03-31T09:19:25.461Z,63.66
2023-03-31T09:21:56.649Z,63.57
2023-03-31T09:24:32.751Z,62.23
2023-03-31T09:27:05.921Z,60.35
2023-03-31T09:29:48.461Z,61.93
2023-03-31T09:32:32.572Z,59.89
2023-03-31T09:35:13.322Z,59.49
2023-03-31T09:37:40.391Z,58.33
2023-03-31T09:40:23.098Z,55.57
2023-03-31T09:43:22.821Z,53.66
2023-03-31T09:48:29.858Z,52.93
2023-03-31T09:51:23.443Z,51.96
2023-03-31T09:54:27.148Z,50.25
2023-03-31T09:56:54.753Z,50.08
2023-03-31T09:59:34.773Z,50.29
2023-03-31T10:02:05.819Z,49.61
2023-03-31T10:04:35.554Z,48.42
2023-03-31T10:07:05.253Z,47.29
2023-03-31T10:09:34.586Z,47.43
2023-03-31T10:12:16.531Z,46.52
2023-03-31T10:14:54.022Z,46.45
2023-03-31T10:17:24.102Z,46.85
2023-03-31T10:20:08.103Z,47.21
2023-03-31T10:22:44.859Z,47.18
2023-03-31T10:25:30.323Z,46.85
2023-03-31T10:27:58.301Z,47.85
2023-03-31T10:30:36.059Z,46.15
2023-03-31T10:33:22.691Z,45.48
2023-03-31T10:35:56.424Z,43.99
2023-03-31T10:38:37.645Z,44.25
2023-03-31T10:41:07.957Z,44.78
2023-03-31T10:43:51.636Z,45.68
2023-03-31T10:46:21.122Z,46.17
2023-03-31T10:48:48.322Z,46.78
2023-03-31T10:51:19.577Z,46.84
2023-03-31T10:53:51.894Z,47.33
2023-03-31T10:56:38.856Z,46.87
2023-03-31T10:59:24.020Z,47.07
2023-03-31T11:02:24.605Z,47.65
2023-03-31T11:05:23.413Z,48.02
2023-03-31T11:08:12.657Z,48.82
2023-03-31T11:11:27.734Z,48.87
2023-03-31T11:14:22.460Z,48.65
2023-03-31T11:16:59.275Z,48.99
2023-03-31T11:20:02.346Z,49.09
2023-03-31T11:22:48.637Z,48.56
2023-03-31T11:25:36.244Z,49.10
2023-03-31T11:28:32.258Z,48.19
2023-03-31T11:31:17.858Z,47.92
2023-03-31T11:34:00.031Z,48.55
2023-03-31T11:36:46.726Z,48.31
2023-03-31T11:39:47.649Z,48.45
2023-03-31T11:42:26.923Z,48.23
2023-03-31T11:45:02.494Z,48.17
2023-03-31T11:47:44.905Z,48.25
2023-03-31T11:50:17.730Z,48.33
2023-03-31T11:52:58.481Z,48.82
2023-03-31T11:55:29.353Z,48.39
2023-03-31T11:58:21.132Z,49.38
2023-03-31T12:00:54.456Z,48.29
2023-03-31T12:03:41.901Z,47.72
2023-03-31T12:06:17.793Z,48.11
2023-03-31T12:09:23.906Z,48.25
2023-03-31T12:12:35.579Z,47.78
2023-03-31T12:15:20.867Z,48.19
2023-03-31T12:17:57.092Z,48.32
2023-03-31T12:20:34.941Z,47.82
2023-03-31T12:23:09.200Z,46.89
2023-03-31T12:26:14.152Z,46.84
2023-03-31T12:28:44.562Z,46.04
2023-03-31T12:31:21.991Z,45.98
2023-03-31T12:34:07.459Z,45.37
2023-03-31T12:37:01.839Z,45.29
2023-03-31T12:40:00.520Z,44.43
2023-03-31T12:42:33.925Z,44.91
2023-03-31T12:45:19.413Z,44.78
2023-03-31T12:48:04.936Z,45.36
2023-03-31T12:51:10.473Z,45.65
2023-03-31T12:54:15.404Z,45.89
2023-03-31T12:57:06.556Z,46.71
2023-03-31T12:59:39.721Z,46.78
2023-03-31T13:02:11.315Z,46.37
2023-03-31T13:04:41.341Z,46.18
2023-03-31T13:07:28.127Z,45.04
2023-03-31T13:10:22.200Z,45.11
2023-03-31T13:13:14.977Z,44.20
2023-03-31T13:15:52.744Z,44.33
2023-03-31T13:18:22.532Z,44.46
2023-03-31T13:21:08.024Z,44.19
2023-03-31T13:23:37.858Z,43.86
2023-03-31T13:26:25.894Z,43.64
2023-03-31T13:29:17.089Z,44.55
2023-03-31T13:32:02.951Z,44.16
2023-03-31T13:34:36.369Z,44.02
2023-03-31T13:37:33.690Z,44.14
2023-03-31T13:40:13.819Z,43.64
2023-03-31T13:43:09.708Z,43.53
2023-03-31T13:46:18.088Z,43.78
2023-03-31T13:49:03.467Z,43.62
2023-03-31T13:51:55.642Z,43.94
2023-03-31T13:54:25.658Z,43.87
2023-03-31T13:57:19.034Z,44.91
2023-03-31T14:00:01.241Z,45.37
2023-03-31T14:02:28.692Z,45.19
2023-03-31T14:05:31.656Z,45.94
2023-03-31T14:08:30.293Z,45.89
2023-03-31T14:11:24.694Z,46.24
2023-03-31T14:14:16.814Z,46.16
2023-03-31T14:16:58.489Z,46.33
2023-03-31T14:19:56.784Z,45.61
2023-03-31T14:22:45.188Z,46.38
2023-03-31T14:25:28.463Z,46.74
2023-03-31T14:28:18.746Z,47.33
2023-03-31T14:31:01.722Z,46.72
2023-03-31T14:33:32.725Z,46.42
2023-03-31T14:36:06.306Z,45.84
2023-03-31T14:38:45.358Z,46.79
2023-03-31T14:41:30.064Z,46.04
2023-03-31T14:44:06.475Z,45.59
2023-03-31T14:46:38.615Z,45.32
2023-03-31T14:49:27.444Z,45.37
2023-03-31T14:51:59.430Z,45.63
2023-03-31T14:57:30.674Z,45.29
2023-03-31T15:00:09.439Z,45.64
2023-03-31T15:02:47.044Z,45.43
2023-03-31T15:05:35.270Z,45.59
2023-03-31T15:08:17.676Z,46.16
2023-03-31T15:10:58.879Z,46.37
2023-03-31T15:13:46.632Z,47.07
2023-03-31T15:16:43.851Z,46.97
2023-03-31T15:19:26.763Z,47.21
2023-03-31T15:22:03.519Z,47.75
2023-03-31T15:24:31.970Z,47.09
2023-03-31T15:27:10.336Z,46.40
2023-03-31T15:29:52.273Z,46.07
2023-03-31T15:32:30.772Z,47.18
2023-03-31T15:37:47.480Z,46.95
2023-03-31T15:40:29.659Z,47.15
2023-03-31T15:43:24.453Z,46.76
2023-03-31T15:46:02.785Z,47.03
2023-03-31T15:49:07.240Z,46.40
2023-03-31T15:51:41.395Z,46.72
2023-03-31T15:54:43.428Z,47.61
2023-03-31T15:57:20.105Z,47.43
2023-03-31T16:02:49.406Z,48.71
2023-03-31T16:05:32.379Z,49.13
2023-03-31T16:08:11.596Z,50.38
2023-03-31T16:10:45.221Z,50.05
2023-03-31T16:13:18.281Z,49.81
2023-03-31T16:15:49.074Z,51.20
2023-03-31T16:18:24.594Z,51.58
2023-03-31T16:21:13.888Z,51.87
2023-03-31T16:23:41.696Z,52.79
2023-03-31T16:26:09.093Z,53.28
2023-03-31T16:28:49.693Z,54.86
2023-03-31T16:31:37.090Z,55.71
2023-03-31T16:34:05.295Z,56.68
2023-03-31T16:36:32.893Z,56.83
2023-03-31T16:39:02.317Z,57.48
2023-03-31T16:41:29.826Z,59.26
2023-03-31T16:43:56.976Z,60.42
2023-03-31T16:46:25.226Z,60.88
2023-03-31T16:49:11.914Z,61.83
2023-03-31T16:51:42.510Z,61.59
2023-03-31T16:54:22.121Z,63.03
2023-03-31T16:56:59.552Z,64.16
2023-03-31T16:59:53.566Z,64.39
2023-03-31T17:02:21.827Z,65.71
2023-03-31T17:04:59.692Z,65.91
2023-03-31T17:07:36.844Z,66.83
2023-03-31T17:10:07.312Z,66.57
2023-03-31T17:12:45.862Z,66.81
2023-03-31T17:15:25.685Z,68.29
2023-03-31T17:18:00.772Z,68.46
2023-03-31T17:20:47.550Z,68.46
2023-03-31T17:23:35.288Z,69.76
2023-03-31T17:26:21.633Z,70.30
2023-03-31T17:29:10.015Z,70.59
2023-03-31T17:34:34.594Z,71.74
2023-03-31T17:37:15.761Z,72.94
2023-03-31T17:39:44.561Z,73.02
2023-03-31T17:42:27.255Z,73.02
2023-03-31T17:48:31.501Z,75.01
2023-03-31T18:00:58.514Z,76.07
2023-03-31T18:03:51.915Z,76.62
2023-03-31T18:09:38.796Z,77.54
2023-03-31T18:15:09.896Z,77.32
2023-03-31T18:18:25.210Z,77.15
2023-03-31T18:20:57.081Z,77.90
2023-03-31T18:23:48.097Z,79.35
2023-03-31T18:33:31.852Z,80.22
2023-03-31T18:39:17.379Z,80.76
2023-03-31T18:44:45.598Z,81.60
2023-03-31T18:50:27.775Z,82.49
2023-03-31T18:56:11.168Z,83.36
2023-03-31T18:59:09.706Z,83.17
2023-03-31T19:02:52.638Z,83.20
2023-03-31T19:11:35.094Z,83.46
2023-03-31T19:17:40.915Z,83.50
2023-03-31T19:24:03.937Z,83.54
2023-03-31T19:29:58.957Z,84.67
2023-03-31T19:32:37.809Z,84.77
2023-03-31T20:02:56.256Z,86.39
2023-03-31T20:06:11.544Z,86.41
2023-03-31T20:09:34.247Z,86.05
2023-03-31T20:12:14.343Z,86.75
2023-03-31T20:15:05.251Z,87.02
2023-03-31T20:24:10.738Z,87.90
2023-03-31T20:26:43.685Z,88.05
2023-03-31T20:29:21.343Z,87.92
2023-03-31T20:32:34.916Z,87.28
2023-03-31T20:39:05.677Z,88.53
2023-03-31T20:42:08.034Z,87.72
2023-03-31T20:44:54.633Z,88.83
2023-03-31T20:47:56.343Z,88.40
2023-03-31T20:50:32.869Z,87.43
2023-03-31T20:56:05.989Z,88.41
2023-03-31T20:59:32.304Z,88.31
2023-03-31T21:02:06.870Z,87.51
2023-03-31T21:04:38.406Z,88.03
2023-03-31T21:07:59.846Z,87.82
2023-03-31T21:13:23.889Z,88.38
2023-03-31T21:16:00.863Z,88.31
2023-03-31T21:18:42.075Z,88.01
2023-03-31T21:21:49.941Z,89.18
2023-03-31T21:27:43.614Z,89.96
2023-03-31T21:37:03.582Z,89.81
2023-03-31T21:39:41.149Z,89.70
2023-03-31T21:43:07.957Z,89.27
2023-03-31T21:57:45.182Z,92.82
2023-03-31T21:57:59.415Z,91.54
2023-03-31T22:00:15.016Z,92.00
2023-03-31T22:03:22.322Z,93.56
2023-03-31T22:08:48.894Z,94.75
2023-03-31T22:14:36.710Z,94.86
2023-03-31T22:17:53.951Z,95.89
2023-03-31T22:34:05.506Z,95.73
2023-03-31T22:40:02.033Z,94.87
2023-03-31T22:43:13.936Z,95.81
2023-03-31T22:45:59.949Z,95.97
2023-03-31T22:48:42.630Z,95.45
2023-03-31T22:51:15.476Z,94.82
2023-03-31T22:54:41.509Z,94.77
2023-03-31T22:57:40.532Z,95.35
2023-03-31T23:00:44.157Z,96.28
2023-03-31T23:06:23.884Z,95.78
2023-03-31T23:09:23.799Z,96.42
2023-03-31T23:12:12.988Z,96.02
2023-03-31T23:15:36.579Z,97.62
2023-03-31T23:18:25.573Z,97.11
2023-03-31T23:20:58.877Z,97.02
2023-03-31T23:23:32.212Z,98.11
2023-03-31T23:26:33.584Z,97.89
2023-03-31T23:29:49.184Z,98.13
2023-03-31T23:32:17.730Z,97.88
2023-03-31T23:37:51.669Z,97.31
2023-03-31T23:41:37.564Z,100.00
2023-03-31T23:44:04.465Z,100.00
2023-03-31T23:49:51.895Z,100.00
2023-03-31T23:55:13.943Z,99.74
2023-03-31T23:57:42.826Z,98.73
